createdAt,value
2023-04-27T00:05:21.893Z,101088.72
2023-04-27T00:15:26.592Z,101096.47
2023-04-27T00:25:29.667Z,101089.69
2023-04-27T00:35:34.967Z,101103.44
2023-04-27T00:45:42.547Z,101096.59
2023-04-27T00:55:48.558Z,101094.00
2023-04-27T01:05:51.521Z,101100.94
2023-04-27T01:15:55.888Z,101106.03
2023-04-27T01:26:01.504Z,101095.78
2023-04-27T01:36:04.792Z,101106.03
2023-04-27T01:46:10.266Z,101113.78
2023-04-27T01:56:13.362Z,101112.97
2023-04-27T02:06:18.266Z,101111.25
2023-04-27T02:16:22.589Z,101107.00
2023-04-27T02:26:29.437Z,101106.13
2023-04-27T02:36:33.445Z,101101.91
2023-04-27T02:46:38.105Z,101108.75
2023-04-27T02:56:41.134Z,101096.88
2023-04-27T03:06:45.816Z,101096.91
2023-04-27T03:16:48.962Z,101084.94
2023-04-27T03:26:53.587Z,101096.09
2023-04-27T03:36:57.942Z,101099.44
2023-04-27T03:47:02.343Z,101096.06
2023-04-27T03:57:05.990Z,101108.03
2023-04-27T04:07:10.415Z,101107.19
2023-04-27T04:17:13.345Z,101114.84
2023-04-27T04:27:18.662Z,101117.41
2023-04-27T04:37:21.949Z,101132.78
2023-04-27T04:47:27.239Z,101139.66
2023-04-27T04:57:31.267Z,101136.22
2023-04-27T05:07:35.677Z,101145.59
2023-04-27T05:17:38.748Z,101138.78
2023-04-27T05:27:43.070Z,101161.81
2023-04-27T05:37:46.201Z,101170.25
2023-04-27T05:47:50.646Z,101182.16
2023-04-27T05:58:07.149Z,101182.09
2023-04-27T06:08:14.100Z,101187.13
2023-04-27T06:18:17.369Z,101190.50
2023-04-27T06:28:22.075Z,101190.31
2023-04-27T06:38:26.077Z,101202.16
2023-04-27T06:48:30.594Z,101198.47
2023-04-27T06:58:34.105Z,101189.75
2023-04-27T07:08:38.449Z,101174.00
2023-04-27T07:18:43.328Z,101182.50
2023-04-27T07:28:47.954Z,101187.69
2023-04-27T07:38:51.266Z,101183.22
2023-04-27T07:48:55.990Z,101180.25
2023-04-27T07:58:58.846Z,101177.16
2023-04-27T08:09:04.382Z,101165.50
2023-04-27T08:19:07.343Z,101161.88
2023-04-27T08:29:23.558Z,101161.53
2023-04-27T08:39:29.930Z,101146.84
2023-04-27T08:49:35.068Z,101142.94
2023-04-27T08:59:38.006Z,101140.63
2023-04-27T09:09:43.366Z,101140.78
2023-04-27T09:19:46.576Z,101130.84
2023-04-27T09:29:51.576Z,101131.88
2023-04-27T09:39:55.058Z,101116.84
2023-04-27T09:50:01.098Z,101115.44
2023-04-27T10:00:16.434Z,101103.47
2023-04-27T10:10:21.105Z,101093.13
2023-04-27T10:20:31.493Z,101083.16
2023-04-27T10:30:38.803Z,101080.28
2023-04-27T10:40:42.156Z,101064.47
2023-04-27T10:50:46.819Z,101054.06
2023-04-27T11:00:50.097Z,101046.25
2023-04-27T11:10:54.383Z,101035.84
2023-04-27T11:21:08.490Z,101017.84
2023-04-27T11:31:13.615Z,101023.13
2023-04-27T11:41:17.877Z,101003.19
2023-04-27T11:51:26.164Z,101002.50
2023-04-27T12:01:37.530Z,100988.09
2023-04-27T12:11:42.764Z,100983.66
2023-04-27T12:21:46.693Z,100962.91
2023-04-27T12:31:51.460Z,100970.44
2023-04-27T12:41:55.166Z,100966.50
2023-04-27T12:52:00.184Z,100963.78
2023-04-27T13:02:04.217Z,100952.34
2023-04-27T13:12:09.325Z,100958.88
2023-04-27T13:22:12.356Z,100954.97
2023-04-27T13:32:17.217Z,100939.00
2023-04-27T13:42:20.617Z,100936.50
2023-04-27T13:52:24.958Z,100926.28
2023-04-27T14:02:29.368Z,100908.81
2023-04-27T14:12:34.126Z,100912.66
2023-04-27T14:22:37.501Z,100898.13
2023-04-27T14:32:42.240Z,100893.28
2023-04-27T14:42:45.612Z,100879.38
2023-04-27T14:52:50.424Z,100862.72
2023-04-27T15:02:54.454Z,100851.38
2023-04-27T15:12:58.796Z,100837.72
2023-04-27T15:23:01.813Z,100823.19
2023-04-27T15:33:08.167Z,100824.28
2023-04-27T15:43:13.386Z,100818.13
2023-04-27T15:53:18.131Z,100807.31
2023-04-27T16:03:21.600Z,100793.59
2023-04-27T16:13:27.325Z,100788.84
2023-04-27T16:23:30.598Z,100788.41
2023-04-27T16:33:35.180Z,100774.38
2023-04-27T16:43:38.657Z,100767.72
2023-04-27T16:53:44.058Z,100760.31
2023-04-27T17:03:47.863Z,100748.03
2023-04-27T17:13:52.497Z,100735.63
2023-04-27T17:23:55.888Z,100737.88
2023-04-27T17:34:00.292Z,100720.69
2023-04-27T17:44:04.214Z,100723.41
2023-04-27T17:54:08.766Z,100729.16
2023-04-27T18:04:12.393Z,100729.06
2023-04-27T18:14:16.810Z,100701.94
2023-04-27T18:24:20.049Z,100700.63
2023-04-27T18:34:24.369Z,100706.00
2023-04-27T18:44:27.165Z,100704.66
2023-04-27T18:54:31.725Z,100707.28
2023-04-27T19:04:34.723Z,100700.53
2023-04-27T19:14:39.299Z,100691.69
2023-04-27T19:24:42.447Z,100695.44
2023-04-27T19:34:46.957Z,100704.22
2023-04-27T19:44:50.089Z,100699.63
2023-04-27T19:54:54.917Z,100710.06
2023-04-27T20:04:59.561Z,100714.06
2023-04-27T20:15:05.227Z,100696.94
2023-04-27T20:25:09.240Z,100685.72
2023-04-27T20:35:14.037Z,100688.50
2023-04-27T20:45:17.619Z,100681.75
2023-04-27T20:55:22.289Z,100676.69
2023-04-27T21:05:26.018Z,100672.91
2023-04-27T21:15:31.003Z,100669.06
2023-04-27T21:25:34.969Z,100645.69
2023-04-27T21:35:39.836Z,100640.25
2023-04-27T21:45:43.095Z,100623.56
2023-04-27T21:55:49.357Z,100609.88
2023-04-27T22:05:52.817Z,100608.75
2023-04-27T22:15:57.320Z,100601.78
2023-04-27T22:26:00.344Z,100585.88
2023-04-27T22:36:06.217Z,100579.59
2023-04-27T22:46:09.269Z,100585.69
2023-04-27T22:56:13.475Z,100559.81
2023-04-27T23:06:16.880Z,100546.66
2023-04-27T23:16:21.852Z,100543.84
2023-04-27T23:26:24.798Z,100526.88
2023-04-27T23:36:30.925Z,100512.03
2023-04-27T23:46:34.114Z,100501.03
2023-04-27T23:56:38.438Z,100496.69
